sensor_id;sensor_type;location;lat;lon;timestamp;P1;durP1;ratioP1;P2;durP2;ratioP2
25467;SDS011;13384;24.794;110.498;2023-05-02T00:01:45;28.92;;;20.13;;
25467;SDS011;13384;24.794;110.498;2023-05-02T00:04:17;30.00;;;20.17;;
25467;SDS011;13384;24.794;110.498;2023-05-02T00:07:10;35.42;;;21.42;;
25467;SDS011;13384;24.794;110.498;2023-05-02T00:10:01;40.30;;;22.25;;
25467;SDS011;13384;24.794;110.498;2023-05-02T00:12:34;37.67;;;21.75;;
25467;SDS011;13384;24.794;110.498;2023-05-02T00:15:06;34.15;;;20.58;;
25467;SDS011;13384;24.794;110.498;2023-05-02T00:17:40;35.28;;;21.92;;
25467;SDS011;13384;24.794;110.498;2023-05-02T00:20:12;33.88;;;22.13;;
25467;SDS011;13384;24.794;110.498;2023-05-02T00:23:03;38.60;;;21.65;;
25467;SDS011;13384;24.794;110.498;2023-05-02T00:25:34;36.83;;;22.13;;
25467;SDS011;13384;24.794;110.498;2023-05-02T00:28:06;29.35;;;18.17;;
25467;SDS011;13384;24.794;110.498;2023-05-02T00:30:41;36.75;;;21.63;;
25467;SDS011;13384;24.794;110.498;2023-05-02T00:33:12;36.42;;;20.30;;
25467;SDS011;13384;24.794;110.498;2023-05-02T00:35:44;31.50;;;20.25;;
25467;SDS011;13384;24.794;110.498;2023-05-02T00:38:15;34.90;;;21.45;;
25467;SDS011;13384;24.794;110.498;2023-05-02T00:40:48;35.85;;;22.27;;
25467;SDS011;13384;24.794;110.498;2023-05-02T00:43:32;30.13;;;20.65;;
25467;SDS011;13384;24.794;110.498;2023-05-02T00:46:04;28.67;;;19.73;;
25467;SDS011;13384;24.794;110.498;2023-05-02T00:48:39;36.40;;;20.98;;
25467;SDS011;13384;24.794;110.498;2023-05-02T00:51:32;32.50;;;20.60;;
25467;SDS011;13384;24.794;110.498;2023-05-02T00:54:03;29.70;;;20.02;;
25467;SDS011;13384;24.794;110.498;2023-05-02T00:56:35;38.92;;;20.60;;
25467;SDS011;13384;24.794;110.498;2023-05-02T00:59:07;30.63;;;21.30;;
25467;SDS011;13384;24.794;110.498;2023-05-02T01:01:54;32.85;;;20.05;;
25467;SDS011;13384;24.794;110.498;2023-05-02T01:10:21;34.83;;;21.55;;
25467;SDS011;13384;24.794;110.498;2023-05-02T01:12:57;34.47;;;21.30;;
25467;SDS011;13384;24.794;110.498;2023-05-02T01:15:29;34.97;;;22.35;;
25467;SDS011;13384;24.794;110.498;2023-05-02T01:18:01;36.15;;;21.10;;
25467;SDS011;13384;24.794;110.498;2023-05-02T01:20:35;33.38;;;20.15;;
25467;SDS011;13384;24.794;110.498;2023-05-02T01:29:10;29.02;;;19.92;;
25467;SDS011;13384;24.794;110.498;2023-05-02T01:31:45;33.15;;;20.63;;
25467;SDS011;13384;24.794;110.498;2023-05-02T01:34:21;30.60;;;19.77;;
25467;SDS011;13384;24.794;110.498;2023-05-02T01:36:57;31.88;;;20.60;;
25467;SDS011;13384;24.794;110.498;2023-05-02T01:39:32;32.50;;;20.65;;
25467;SDS011;13384;24.794;110.498;2023-05-02T01:42:04;33.03;;;21.15;;
25467;SDS011;13384;24.794;110.498;2023-05-02T01:44:56;33.80;;;21.05;;
25467;SDS011;13384;24.794;110.498;2023-05-02T01:47:29;32.83;;;20.30;;
25467;SDS011;13384;24.794;110.498;2023-05-02T01:50:08;29.95;;;19.92;;
25467;SDS011;13384;24.794;110.498;2023-05-02T01:52:43;30.42;;;20.15;;
25467;SDS011;13384;24.794;110.498;2023-05-02T01:55:21;32.60;;;19.35;;
25467;SDS011;13384;24.794;110.498;2023-05-02T01:57:56;37.35;;;19.70;;
25467;SDS011;13384;24.794;110.498;2023-05-02T02:00:27;30.63;;;20.48;;
25467;SDS011;13384;24.794;110.498;2023-05-02T02:03:21;30.67;;;21.05;;
25467;SDS011;13384;24.794;110.498;2023-05-02T02:06:14;31.77;;;20.52;;
25467;SDS011;13384;24.794;110.498;2023-05-02T02:08:46;36.03;;;20.70;;
25467;SDS011;13384;24.794;110.498;2023-05-02T02:11:20;31.98;;;21.65;;
25467;SDS011;13384;24.794;110.498;2023-05-02T02:13:57;33.38;;;20.88;;
25467;SDS011;13384;24.794;110.498;2023-05-02T02:16:43;33.08;;;22.85;;
25467;SDS011;13384;24.794;110.498;2023-05-02T02:19:30;39.35;;;23.15;;
25467;SDS011;13384;24.794;110.498;2023-05-02T02:22:03;29.92;;;19.75;;
25467;SDS011;13384;24.794;110.498;2023-05-02T02:24:35;34.03;;;20.02;;
25467;SDS011;13384;24.794;110.498;2023-05-02T02:27:07;26.55;;;19.10;;
25467;SDS011;13384;24.794;110.498;2023-05-02T02:29:40;28.63;;;19.20;;
25467;SDS011;13384;24.794;110.498;2023-05-02T02:32:12;26.55;;;18.48;;
25467;SDS011;13384;24.794;110.498;2023-05-02T02:35:18;29.88;;;17.02;;
25467;SDS011;13384;24.794;110.498;2023-05-02T02:38:07;24.33;;;15.48;;
25467;SDS011;13384;24.794;110.498;2023-05-02T02:40:59;20.60;;;14.50;;
25467;SDS011;13384;24.794;110.498;2023-05-02T02:46:33;17.45;;;13.15;;
25467;SDS011;13384;24.794;110.498;2023-05-02T02:54:57;18.67;;;13.10;;
25467;SDS011;13384;24.794;110.498;2023-05-02T02:57:36;17.63;;;13.05;;
25467;SDS011;13384;24.794;110.498;2023-05-02T03:00:12;17.65;;;12.65;;
25467;SDS011;13384;24.794;110.498;2023-05-02T03:02:53;15.98;;;12.25;;
25467;SDS011;13384;24.794;110.498;2023-05-02T03:05:26;18.17;;;13.02;;
25467;SDS011;13384;24.794;110.498;2023-05-02T03:08:19;16.25;;;11.27;;
25467;SDS011;13384;24.794;110.498;2023-05-02T03:10:52;15.40;;;11.80;;
25467;SDS011;13384;24.794;110.498;2023-05-02T03:13:25;20.50;;;13.25;;
25467;SDS011;13384;24.794;110.498;2023-05-02T03:18:58;20.90;;;12.48;;
25467;SDS011;13384;24.794;110.498;2023-05-02T03:21:32;18.25;;;12.32;;
25467;SDS011;13384;24.794;110.498;2023-05-02T03:24:11;19.70;;;12.63;;
25467;SDS011;13384;24.794;110.498;2023-05-02T03:26:47;17.48;;;12.48;;
25467;SDS011;13384;24.794;110.498;2023-05-02T03:29:39;16.33;;;11.00;;
25467;SDS011;13384;24.794;110.498;2023-05-02T03:32:17;14.70;;;11.07;;
25467;SDS011;13384;24.794;110.498;2023-05-02T03:34:49;17.83;;;10.98;;
25467;SDS011;13384;24.794;110.498;2023-05-02T03:37:21;19.33;;;13.15;;
25467;SDS011;13384;24.794;110.498;2023-05-02T03:39:57;15.85;;;11.20;;
25467;SDS011;13384;24.794;110.498;2023-05-02T03:42:30;16.48;;;11.65;;
25467;SDS011;13384;24.794;110.498;2023-05-02T03:45:02;14.98;;;11.50;;
25467;SDS011;13384;24.794;110.498;2023-05-02T03:47:36;14.15;;;9.60;;
25467;SDS011;13384;24.794;110.498;2023-05-02T03:50:28;13.70;;;9.50;;
25467;SDS011;13384;24.794;110.498;2023-05-02T03:53:00;18.63;;;12.25;;
25467;SDS011;13384;24.794;110.498;2023-05-02T03:55:41;26.77;;;23.83;;
25467;SDS011;13384;24.794;110.498;2023-05-02T03:58:19;20.00;;;14.07;;
25467;SDS011;13384;24.794;110.498;2023-05-02T04:00:54;26.20;;;20.08;;
25467;SDS011;13384;24.794;110.498;2023-05-02T04:03:30;15.27;;;10.38;;
25467;SDS011;13384;24.794;110.498;2023-05-02T04:06:02;22.92;;;18.10;;
25467;SDS011;13384;24.794;110.498;2023-05-02T04:08:37;17.00;;;10.73;;
25467;SDS011;13384;24.794;110.498;2023-05-02T04:11:35;62.20;;;48.72;;
25467;SDS011;13384;24.794;110.498;2023-05-02T04:14:10;28.50;;;23.42;;
25467;SDS011;13384;24.794;110.498;2023-05-02T04:17:02;23.08;;;18.88;;
25467;SDS011;13384;24.794;110.498;2023-05-02T04:19:40;19.67;;;15.25;;
25467;SDS011;13384;24.794;110.498;2023-05-02T04:25:11;18.90;;;14.10;;
25467;SDS011;13384;24.794;110.498;2023-05-02T04:28:07;22.75;;;18.38;;
25467;SDS011;13384;24.794;110.498;2023-05-02T04:31:04;20.20;;;16.15;;
25467;SDS011;13384;24.794;110.498;2023-05-02T04:33:55;31.05;;;25.40;;
25467;SDS011;13384;24.794;110.498;2023-05-02T04:36:32;19.85;;;14.07;;
25467;SDS011;13384;24.794;110.498;2023-05-02T04:41:42;72.15;;;31.40;;
25467;SDS011;13384;24.794;110.498;2023-05-02T04:44:14;21.85;;;14.95;;
25467;SDS011;13384;24.794;110.498;2023-05-02T04:46:47;17.85;;;14.18;;
25467;SDS011;13384;24.794;110.498;2023-05-02T04:49:21;18.00;;;12.95;;
25467;SDS011;13384;24.794;110.498;2023-05-02T04:54:26;19.42;;;12.55;;
25467;SDS011;13384;24.794;110.498;2023-05-02T04:57:03;16.83;;;12.02;;
25467;SDS011;13384;24.794;110.498;2023-05-02T05:00:00;18.08;;;12.00;;
25467;SDS011;13384;24.794;110.498;2023-05-02T05:02:31;20.77;;;11.75;;
25467;SDS011;13384;24.794;110.498;2023-05-02T05:05:02;17.05;;;11.25;;
25467;SDS011;13384;24.794;110.498;2023-05-02T05:07:36;19.92;;;12.57;;
25467;SDS011;13384;24.794;110.498;2023-05-02T05:10:10;29.67;;;18.60;;
25467;SDS011;13384;24.794;110.498;2023-05-02T05:12:45;19.17;;;14.30;;
25467;SDS011;13384;24.794;110.498;2023-05-02T05:15:51;21.33;;;14.52;;
25467;SDS011;13384;24.794;110.498;2023-05-02T05:18:27;24.88;;;15.07;;
25467;SDS011;13384;24.794;110.498;2023-05-02T05:21:00;20.50;;;13.13;;
25467;SDS011;13384;24.794;110.498;2023-05-02T05:23:44;17.83;;;12.38;;
25467;SDS011;13384;24.794;110.498;2023-05-02T05:26:22;18.10;;;12.00;;
25467;SDS011;13384;24.794;110.498;2023-05-02T05:29:17;18.88;;;12.38;;
25467;SDS011;13384;24.794;110.498;2023-05-02T05:31:51;22.13;;;11.98;;
25467;SDS011;13384;24.794;110.498;2023-05-02T05:34:24;15.40;;;11.90;;
25467;SDS011;13384;24.794;110.498;2023-05-02T05:37:22;20.77;;;12.55;;
25467;SDS011;13384;24.794;110.498;2023-05-02T05:40:00;17.35;;;11.75;;
25467;SDS011;13384;24.794;110.498;2023-05-02T05:42:31;20.05;;;13.10;;
25467;SDS011;13384;24.794;110.498;2023-05-02T05:45:09;20.50;;;13.07;;
25467;SDS011;13384;24.794;110.498;2023-05-02T05:47:42;20.20;;;12.55;;
25467;SDS011;13384;24.794;110.498;2023-05-02T05:50:14;19.60;;;12.90;;
25467;SDS011;13384;24.794;110.498;2023-05-02T05:52:46;20.30;;;12.50;;
25467;SDS011;13384;24.794;110.498;2023-05-02T05:55:18;19.42;;;12.40;;
25467;SDS011;13384;24.794;110.498;2023-05-02T05:58:19;18.00;;;12.25;;
25467;SDS011;13384;24.794;110.498;2023-05-02T06:01:12;17.38;;;12.30;;
25467;SDS011;13384;24.794;110.498;2023-05-02T06:04:05;20.25;;;13.52;;
25467;SDS011;13384;24.794;110.498;2023-05-02T06:06:56;20.95;;;13.90;;
25467;SDS011;13384;24.794;110.498;2023-05-02T06:09:27;18.30;;;12.73;;
25467;SDS011;13384;24.794;110.498;2023-05-02T06:12:32;17.13;;;12.45;;
25467;SDS011;13384;24.794;110.498;2023-05-02T06:15:05;16.90;;;11.10;;
25467;SDS011;13384;24.794;110.498;2023-05-02T06:17:40;18.95;;;12.15;;
25467;SDS011;13384;24.794;110.498;2023-05-02T06:20:14;19.67;;;12.85;;
25467;SDS011;13384;24.794;110.498;2023-05-02T06:22:45;19.42;;;12.90;;
25467;SDS011;13384;24.794;110.498;2023-05-02T06:25:18;21.88;;;12.63;;
25467;SDS011;13384;24.794;110.498;2023-05-02T06:27:55;20.33;;;13.05;;
25467;SDS011;13384;24.794;110.498;2023-05-02T06:30:46;21.42;;;13.07;;
25467;SDS011;13384;24.794;110.498;2023-05-02T06:33:17;22.40;;;12.95;;
25467;SDS011;13384;24.794;110.498;2023-05-02T06:35:52;17.38;;;12.18;;
25467;SDS011;13384;24.794;110.498;2023-05-02T06:38:28;17.88;;;12.75;;
25467;SDS011;13384;24.794;110.498;2023-05-02T06:40:59;20.33;;;12.48;;
25467;SDS011;13384;24.794;110.498;2023-05-02T06:43:33;22.63;;;13.45;;
25467;SDS011;13384;24.794;110.498;2023-05-02T06:46:29;21.25;;;14.35;;
25467;SDS011;13384;24.794;110.498;2023-05-02T06:49:00;20.00;;;12.57;;
25467;SDS011;13384;24.794;110.498;2023-05-02T06:51:32;23.67;;;13.02;;
25467;SDS011;13384;24.794;110.498;2023-05-02T06:54:04;22.13;;;13.05;;
25467;SDS011;13384;24.794;110.498;2023-05-02T06:56:41;20.33;;;13.52;;
25467;SDS011;13384;24.794;110.498;2023-05-02T06:59:33;22.30;;;13.57;;
25467;SDS011;13384;24.794;110.498;2023-05-02T07:02:05;19.48;;;13.25;;
25467;SDS011;13384;24.794;110.498;2023-05-02T07:04:36;20.77;;;12.93;;
25467;SDS011;13384;24.794;110.498;2023-05-02T07:07:07;18.00;;;11.68;;
25467;SDS011;13384;24.794;110.498;2023-05-02T07:09:58;18.67;;;11.88;;
25467;SDS011;13384;24.794;110.498;2023-05-02T07:12:31;20.45;;;13.15;;
25467;SDS011;13384;24.794;110.498;2023-05-02T07:15:03;20.80;;;13.43;;
25467;SDS011;13384;24.794;110.498;2023-05-02T07:17:38;24.07;;;14.83;;
25467;SDS011;13384;24.794;110.498;2023-05-02T07:20:11;22.55;;;14.07;;
25467;SDS011;13384;24.794;110.498;2023-05-02T07:23:08;22.10;;;14.75;;
25467;SDS011;13384;24.794;110.498;2023-05-02T07:26:08;18.50;;;12.07;;
25467;SDS011;13384;24.794;110.498;2023-05-02T07:28:41;19.20;;;12.93;;
25467;SDS011;13384;24.794;110.498;2023-05-02T07:31:12;20.67;;;13.55;;
25467;SDS011;13384;24.794;110.498;2023-05-02T07:33:46;21.48;;;13.13;;
25467;SDS011;13384;24.794;110.498;2023-05-02T07:36:19;34.03;;;25.10;;
25467;SDS011;13384;24.794;110.498;2023-05-02T07:39:01;20.13;;;13.07;;
25467;SDS011;13384;24.794;110.498;2023-05-02T07:41:34;21.13;;;11.67;;
25467;SDS011;13384;24.794;110.498;2023-05-02T07:44:06;22.92;;;14.25;;
25467;SDS011;13384;24.794;110.498;2023-05-02T07:46:57;21.48;;;13.00;;
25467;SDS011;13384;24.794;110.498;2023-05-02T07:49:29;20.65;;;13.15;;
25467;SDS011;13384;24.794;110.498;2023-05-02T07:52:04;22.88;;;14.20;;
25467;SDS011;13384;24.794;110.498;2023-05-02T07:55:22;18.02;;;13.80;;
25467;SDS011;13384;24.794;110.498;2023-05-02T07:58:16;21.38;;;13.35;;
25467;SDS011;13384;24.794;110.498;2023-05-02T08:01:07;17.35;;;13.13;;
25467;SDS011;13384;24.794;110.498;2023-05-02T08:03:40;23.17;;;14.60;;
25467;SDS011;13384;24.794;110.498;2023-05-02T08:06:43;15.70;;;11.75;;
25467;SDS011;13384;24.794;110.498;2023-05-02T08:09:53;18.25;;;11.82;;
25467;SDS011;13384;24.794;110.498;2023-05-02T08:12:47;19.45;;;14.25;;
25467;SDS011;13384;24.794;110.498;2023-05-02T08:15:19;23.45;;;14.48;;
25467;SDS011;13384;24.794;110.498;2023-05-02T08:17:53;24.65;;;14.82;;
25467;SDS011;13384;24.794;110.498;2023-05-02T08:20:29;22.23;;;14.70;;
25467;SDS011;13384;24.794;110.498;2023-05-02T08:23:00;20.65;;;14.65;;
25467;SDS011;13384;24.794;110.498;2023-05-02T08:25:32;24.45;;;14.82;;
25467;SDS011;13384;24.794;110.498;2023-05-02T08:28:03;21.42;;;14.75;;
25467;SDS011;13384;24.794;110.498;2023-05-02T08:30:35;17.92;;;12.38;;
25467;SDS011;13384;24.794;110.498;2023-05-02T08:33:06;20.42;;;13.63;;
25467;SDS011;13384;24.794;110.498;2023-05-02T08:35:37;24.00;;;14.25;;
25467;SDS011;13384;24.794;110.498;2023-05-02T08:38:13;21.60;;;14.20;;
25467;SDS011;13384;24.794;110.498;2023-05-02T08:40:45;22.48;;;14.15;;
25467;SDS011;13384;24.794;110.498;2023-05-02T08:43:21;19.75;;;13.93;;
25467;SDS011;13384;24.794;110.498;2023-05-02T08:46:13;21.92;;;14.45;;
25467;SDS011;13384;24.794;110.498;2023-05-02T08:49:05;23.80;;;15.82;;
25467;SDS011;13384;24.794;110.498;2023-05-02T08:51:37;19.27;;;13.40;;
25467;SDS011;13384;24.794;110.498;2023-05-02T08:54:10;17.25;;;11.73;;
25467;SDS011;13384;24.794;110.498;2023-05-02T08:56:41;17.20;;;12.88;;
25467;SDS011;13384;24.794;110.498;2023-05-02T08:59:12;24.17;;;15.30;;
25467;SDS011;13384;24.794;110.498;2023-05-02T09:01:46;18.25;;;12.15;;
25467;SDS011;13384;24.794;110.498;2023-05-02T09:04:19;23.20;;;14.63;;
25467;SDS011;13384;24.794;110.498;2023-05-02T09:07:07;22.50;;;15.23;;
25467;SDS011;13384;24.794;110.498;2023-05-02T09:09:40;23.80;;;15.30;;
25467;SDS011;13384;24.794;110.498;2023-05-02T09:12:13;24.40;;;14.73;;
25467;SDS011;13384;24.794;110.498;2023-05-02T09:14:45;24.95;;;17.17;;
25467;SDS011;13384;24.794;110.498;2023-05-02T09:20:21;29.95;;;17.20;;
25467;SDS011;13384;24.794;110.498;2023-05-02T09:22:52;29.70;;;16.63;;
25467;SDS011;13384;24.794;110.498;2023-05-02T09:25:24;26.88;;;17.48;;
25467;SDS011;13384;24.794;110.498;2023-05-02T09:27:56;27.35;;;18.25;;
25467;SDS011;13384;24.794;110.498;2023-05-02T09:30:37;23.00;;;15.07;;
25467;SDS011;13384;24.794;110.498;2023-05-02T09:33:11;27.65;;;17.10;;
25467;SDS011;13384;24.794;110.498;2023-05-02T09:35:52;32.13;;;17.38;;
25467;SDS011;13384;24.794;110.498;2023-05-02T09:38:24;34.38;;;14.60;;
25467;SDS011;13384;24.794;110.498;2023-05-02T09:41:01;26.10;;;18.63;;
25467;SDS011;13384;24.794;110.498;2023-05-02T09:43:54;27.50;;;18.17;;
25467;SDS011;13384;24.794;110.498;2023-05-02T09:46:28;32.22;;;18.67;;
25467;SDS011;13384;24.794;110.498;2023-05-02T09:49:11;25.25;;;18.23;;
25467;SDS011;13384;24.794;110.498;2023-05-02T09:51:56;28.05;;;18.65;;
25467;SDS011;13384;24.794;110.498;2023-05-02T09:54:40;30.07;;;18.10;;
25467;SDS011;13384;24.794;110.498;2023-05-02T09:57:11;27.27;;;19.13;;
25467;SDS011;13384;24.794;110.498;2023-05-02T09:59:54;43.08;;;17.70;;
25467;SDS011;13384;24.794;110.498;2023-05-02T10:02:39;36.50;;;17.30;;
25467;SDS011;13384;24.794;110.498;2023-05-02T10:05:13;39.92;;;17.65;;
25467;SDS011;13384;24.794;110.498;2023-05-02T10:07:46;56.00;;;23.67;;
25467;SDS011;13384;24.794;110.498;2023-05-02T10:10:20;43.28;;;24.27;;
25467;SDS011;13384;24.794;110.498;2023-05-02T10:12:51;36.58;;;20.02;;
25467;SDS011;13384;24.794;110.498;2023-05-02T10:15:44;36.40;;;22.20;;
25467;SDS011;13384;24.794;110.498;2023-05-02T10:18:40;40.03;;;22.73;;
25467;SDS011;13384;24.794;110.498;2023-05-02T10:21:16;35.20;;;21.42;;
25467;SDS011;13384;24.794;110.498;2023-05-02T10:23:49;37.28;;;22.45;;
25467;SDS011;13384;24.794;110.498;2023-05-02T10:26:22;32.03;;;16.90;;
25467;SDS011;13384;24.794;110.498;2023-05-02T10:28:54;40.85;;;23.55;;
25467;SDS011;13384;24.794;110.498;2023-05-02T10:31:37;74.07;;;39.17;;
25467;SDS011;13384;24.794;110.498;2023-05-02T10:34:13;40.67;;;27.63;;
25467;SDS011;13384;24.794;110.498;2023-05-02T10:36:45;34.72;;;20.15;;
25467;SDS011;13384;24.794;110.498;2023-05-02T10:39:21;32.75;;;22.10;;
25467;SDS011;13384;24.794;110.498;2023-05-02T10:41:54;40.10;;;22.87;;
25467;SDS011;13384;24.794;110.498;2023-05-02T10:44:37;34.70;;;18.77;;
25467;SDS011;13384;24.794;110.498;2023-05-02T10:49:51;27.63;;;19.88;;
25467;SDS011;13384;24.794;110.498;2023-05-02T11:00:32;30.10;;;19.13;;
25467;SDS011;13384;24.794;110.498;2023-05-02T11:03:05;29.98;;;20.98;;
25467;SDS011;13384;24.794;110.498;2023-05-02T11:08:30;34.63;;;20.45;;
25467;SDS011;13384;24.794;110.498;2023-05-02T11:13:54;33.63;;;20.05;;
25467;SDS011;13384;24.794;110.498;2023-05-02T11:20:38;35.97;;;21.38;;
25467;SDS011;13384;24.794;110.498;2023-05-02T11:22:58;29.65;;;18.52;;
25467;SDS011;13384;24.794;110.498;2023-05-02T11:25:32;42.92;;;26.67;;
25467;SDS011;13384;24.794;110.498;2023-05-02T11:33:11;29.52;;;21.55;;
25467;SDS011;13384;24.794;110.498;2023-05-02T11:35:48;28.35;;;18.25;;
25467;SDS011;13384;24.794;110.498;2023-05-02T11:38:39;32.67;;;21.25;;
25467;SDS011;13384;24.794;110.498;2023-05-02T11:41:12;29.98;;;19.35;;
25467;SDS011;13384;24.794;110.498;2023-05-02T11:43:44;28.42;;;18.58;;
25467;SDS011;13384;24.794;110.498;2023-05-02T11:46:36;39.72;;;22.77;;
25467;SDS011;13384;24.794;110.498;2023-05-02T11:49:28;36.22;;;22.67;;
25467;SDS011;13384;24.794;110.498;2023-05-02T11:52:00;28.23;;;19.42;;
25467;SDS011;13384;24.794;110.498;2023-05-02T11:54:32;28.73;;;19.73;;
25467;SDS011;13384;24.794;110.498;2023-05-02T11:57:05;36.53;;;25.48;;
25467;SDS011;13384;24.794;110.498;2023-05-02T12:05:07;37.00;;;22.50;;
25467;SDS011;13384;24.794;110.498;2023-05-02T12:10:11;32.38;;;19.55;;
25467;SDS011;13384;24.794;110.498;2023-05-02T12:13:23;33.28;;;21.35;;
25467;SDS011;13384;24.794;110.498;2023-05-02T12:15:55;36.80;;;26.37;;
25467;SDS011;13384;24.794;110.498;2023-05-02T12:18:33;36.35;;;24.55;;
25467;SDS011;13384;24.794;110.498;2023-05-02T12:23:45;33.53;;;19.65;;
25467;SDS011;13384;24.794;110.498;2023-05-02T12:26:20;27.30;;;18.70;;
25467;SDS011;13384;24.794;110.498;2023-05-02T12:28:53;35.25;;;22.75;;
25467;SDS011;13384;24.794;110.498;2023-05-02T12:31:30;31.88;;;21.58;;
25467;SDS011;13384;24.794;110.498;2023-05-02T12:34:02;25.80;;;18.63;;
25467;SDS011;13384;24.794;110.498;2023-05-02T12:36:43;28.48;;;19.05;;
25467;SDS011;13384;24.794;110.498;2023-05-02T12:39:42;32.58;;;21.60;;
25467;SDS011;13384;24.794;110.498;2023-05-02T12:42:15;30.58;;;21.38;;
25467;SDS011;13384;24.794;110.498;2023-05-02T12:45:17;37.38;;;24.23;;
25467;SDS011;13384;24.794;110.498;2023-05-02T12:47:49;36.92;;;22.85;;
25467;SDS011;13384;24.794;110.498;2023-05-02T12:51:03;41.45;;;25.05;;
25467;SDS011;13384;24.794;110.498;2023-05-02T12:53:54;28.58;;;19.90;;
25467;SDS011;13384;24.794;110.498;2023-05-02T12:56:45;33.42;;;21.15;;
25467;SDS011;13384;24.794;110.498;2023-05-02T12:59:27;44.97;;;24.27;;
25467;SDS011;13384;24.794;110.498;2023-05-02T13:02:00;47.28;;;23.40;;
25467;SDS011;13384;24.794;110.498;2023-05-02T13:04:38;47.22;;;24.02;;
25467;SDS011;13384;24.794;110.498;2023-05-02T13:07:25;35.00;;;22.23;;
25467;SDS011;13384;24.794;110.498;2023-05-02T13:09:56;40.45;;;22.55;;
25467;SDS011;13384;24.794;110.498;2023-05-02T13:13:08;35.47;;;22.25;;
25467;SDS011;13384;24.794;110.498;2023-05-02T13:15:40;33.92;;;23.40;;
25467;SDS011;13384;24.794;110.498;2023-05-02T13:18:12;33.60;;;22.77;;
25467;SDS011;13384;24.794;110.498;2023-05-02T13:20:45;34.10;;;22.73;;
25467;SDS011;13384;24.794;110.498;2023-05-02T13:23:20;31.42;;;22.10;;
25467;SDS011;13384;24.794;110.498;2023-05-02T13:25:51;33.97;;;22.60;;
25467;SDS011;13384;24.794;110.498;2023-05-02T13:28:23;34.00;;;22.88;;
25467;SDS011;13384;24.794;110.498;2023-05-02T13:30:55;30.15;;;21.25;;
25467;SDS011;13384;24.794;110.498;2023-05-02T13:33:28;33.28;;;22.80;;
25467;SDS011;13384;24.794;110.498;2023-05-02T13:36:02;32.90;;;22.92;;
25467;SDS011;13384;24.794;110.498;2023-05-02T13:38:36;34.80;;;23.52;;
25467;SDS011;13384;24.794;110.498;2023-05-02T13:41:08;30.10;;;21.17;;
25467;SDS011;13384;24.794;110.498;2023-05-02T13:44:20;33.42;;;22.63;;
25467;SDS011;13384;24.794;110.498;2023-05-02T13:46:51;33.85;;;22.35;;
25467;SDS011;13384;24.794;110.498;2023-05-02T13:49:23;33.70;;;23.10;;
25467;SDS011;13384;24.794;110.498;2023-05-02T13:51:54;32.95;;;22.27;;
25467;SDS011;13384;24.794;110.498;2023-05-02T13:54:32;28.40;;;20.98;;
25467;SDS011;13384;24.794;110.498;2023-05-02T13:57:09;31.58;;;20.67;;
25467;SDS011;13384;24.794;110.498;2023-05-02T13:59:56;28.65;;;21.50;;
25467;SDS011;13384;24.794;110.498;2023-05-02T14:02:51;37.92;;;23.00;;
25467;SDS011;13384;24.794;110.498;2023-05-02T14:05:45;27.13;;;20.58;;
25467;SDS011;13384;24.794;110.498;2023-05-02T14:08:16;28.55;;;19.88;;
25467;SDS011;13384;24.794;110.498;2023-05-02T14:10:50;83.95;;;66.32;;
25467;SDS011;13384;24.794;110.498;2023-05-02T14:13:22;37.38;;;26.63;;
25467;SDS011;13384;24.794;110.498;2023-05-02T14:16:19;40.63;;;26.67;;
25467;SDS011;13384;24.794;110.498;2023-05-02T14:18:52;55.53;;;38.67;;
25467;SDS011;13384;24.794;110.498;2023-05-02T14:21:43;50.72;;;36.33;;
25467;SDS011;13384;24.794;110.498;2023-05-02T14:24:14;32.05;;;21.15;;
25467;SDS011;13384;24.794;110.498;2023-05-02T14:26:49;45.63;;;32.30;;
25467;SDS011;13384;24.794;110.498;2023-05-02T14:29:21;55.95;;;38.67;;
25467;SDS011;13384;24.794;110.498;2023-05-02T14:31:53;39.80;;;27.95;;
25467;SDS011;13384;24.794;110.498;2023-05-02T14:35:09;50.05;;;30.27;;
25467;SDS011;13384;24.794;110.498;2023-05-02T14:37:42;39.93;;;25.70;;
25467;SDS011;13384;24.794;110.498;2023-05-02T14:40:16;57.45;;;42.75;;
25467;SDS011;13384;24.794;110.498;2023-05-02T14:42:50;53.97;;;38.47;;
25467;SDS011;13384;24.794;110.498;2023-05-02T14:45:22;71.25;;;51.22;;
25467;SDS011;13384;24.794;110.498;2023-05-02T14:47:54;63.17;;;41.28;;
25467;SDS011;13384;24.794;110.498;2023-05-02T14:50:28;47.63;;;35.05;;
25467;SDS011;13384;24.794;110.498;2023-05-02T14:53:39;46.70;;;30.73;;
25467;SDS011;13384;24.794;110.498;2023-05-02T14:56:32;39.22;;;26.73;;
25467;SDS011;13384;24.794;110.498;2023-05-02T14:59:04;31.90;;;21.65;;
25467;SDS011;13384;24.794;110.498;2023-05-02T15:01:36;29.13;;;22.52;;
25467;SDS011;13384;24.794;110.498;2023-05-02T15:04:08;51.58;;;36.75;;
25467;SDS011;13384;24.794;110.498;2023-05-02T15:06:42;34.05;;;24.02;;
25467;SDS011;13384;24.794;110.498;2023-05-02T15:10:04;30.33;;;21.08;;
25467;SDS011;13384;24.794;110.498;2023-05-02T15:12:39;32.08;;;21.75;;
25467;SDS011;13384;24.794;110.498;2023-05-02T15:15:14;30.48;;;23.00;;
25467;SDS011;13384;24.794;110.498;2023-05-02T15:17:46;41.97;;;29.40;;
25467;SDS011;13384;24.794;110.498;2023-05-02T15:20:37;31.38;;;23.50;;
25467;SDS011;13384;24.794;110.498;2023-05-02T15:23:09;29.55;;;21.48;;
25467;SDS011;13384;24.794;110.498;2023-05-02T15:25:46;32.15;;;21.73;;
25467;SDS011;13384;24.794;110.498;2023-05-02T15:30:49;29.52;;;21.38;;
25467;SDS011;13384;24.794;110.498;2023-05-02T15:33:20;40.22;;;28.13;;
25467;SDS011;13384;24.794;110.498;2023-05-02T15:35:53;33.28;;;22.63;;
25467;SDS011;13384;24.794;110.498;2023-05-02T15:38:26;32.00;;;23.77;;
25467;SDS011;13384;24.794;110.498;2023-05-02T15:41:06;30.88;;;22.05;;
25467;SDS011;13384;24.794;110.498;2023-05-02T15:43:39;33.03;;;23.37;;
25467;SDS011;13384;24.794;110.498;2023-05-02T15:46:31;36.63;;;23.98;;
25467;SDS011;13384;24.794;110.498;2023-05-02T15:49:51;29.70;;;21.45;;
25467;SDS011;13384;24.794;110.498;2023-05-02T15:52:24;33.47;;;22.40;;
25467;SDS011;13384;24.794;110.498;2023-05-02T15:54:56;31.35;;;21.33;;
25467;SDS011;13384;24.794;110.498;2023-05-02T15:57:29;35.42;;;21.60;;
25467;SDS011;13384;24.794;110.498;2023-05-02T16:00:03;30.48;;;21.42;;
25467;SDS011;13384;24.794;110.498;2023-05-02T16:02:39;33.92;;;22.55;;
25467;SDS011;13384;24.794;110.498;2023-05-02T16:05:11;34.78;;;23.95;;
25467;SDS011;13384;24.794;110.498;2023-05-02T16:08:05;37.20;;;21.55;;
25467;SDS011;13384;24.794;110.498;2023-05-02T16:10:38;34.25;;;22.92;;
25467;SDS011;13384;24.794;110.498;2023-05-02T16:13:30;34.75;;;22.25;;
25467;SDS011;13384;24.794;110.498;2023-05-02T16:16:01;33.15;;;22.23;;